sensor_id;sensor_type;location;lat;lon;timestamp;temperature;humidity
15184;DHT22;7693;49.266;7.104;2023-09-08T02:32:05;17.00;99.90
15184;DHT22;7693;49.266;7.104;2023-09-08T02:34:34;17.00;99.90
15184;DHT22;7693;49.266;7.104;2023-09-08T02:37:02;17.00;99.90
15184;DHT22;7693;49.266;7.104;2023-09-08T02:39:27;17.00;99.90
15184;DHT22;7693;49.266;7.104;2023-09-08T02:41:53;17.10;99.90
15184;DHT22;7693;49.266;7.104;2023-09-08T02:44:20;17.10;99.90
15184;DHT22;7693;49.266;7.104;2023-09-08T02:46:47;17.10;99.90
15184;DHT22;7693;49.266;7.104;2023-09-08T02:49:13;17.20;99.90
15184;DHT22;7693;49.266;7.104;2023-09-08T02:51:38;17.20;99.90
15184;DHT22;7693;49.266;7.104;2023-09-08T02:54:04;17.20;99.90
15184;DHT22;7693;49.266;7.104;2023-09-08T02:56:29;17.20;99.90
15184;DHT22;7693;49.266;7.104;2023-09-08T02:58:55;17.10;99.90
15184;DHT22;7693;49.266;7.104;2023-09-08T03:01:20;17.10;99.90
15184;DHT22;7693;49.266;7.104;2023-09-08T03:03:47;17.10;99.90
15184;DHT22;7693;49.266;7.104;2023-09-08T03:06:14;17.10;99.90
15184;DHT22;7693;49.266;7.104;2023-09-08T03:08:40;17.10;99.90
15184;DHT22;7693;49.266;7.104;2023-09-08T03:11:06;17.10;99.90
15184;DHT22;7693;49.266;7.104;2023-09-08T03:13:32;17.00;99.90
15184;DHT22;7693;49.266;7.104;2023-09-08T03:16:06;17.00;99.90
15184;DHT22;7693;49.266;7.104;2023-09-08T03:18:35;17.00;99.90
15184;DHT22;7693;49.266;7.104;2023-09-08T03:21:05;16.90;99.90
15184;DHT22;7693;49.266;7.104;2023-09-08T03:23:42;16.90;99.90
15184;DHT22;7693;49.266;7.104;2023-09-08T03:26:09;16.90;99.90
15184;DHT22;7693;49.266;7.104;2023-09-08T03:28:35;16.80;99.90
15184;DHT22;7693;49.266;7.104;2023-09-08T03:31:02;16.80;99.90
15184;DHT22;7693;49.266;7.104;2023-09-08T03:33:28;16.80;99.90
15184;DHT22;7693;49.266;7.104;2023-09-08T03:35:53;16.70;99.90
15184;DHT22;7693;49.266;7.104;2023-09-08T03:38:19;16.70;99.90
15184;DHT22;7693;49.266;7.104;2023-09-08T03:40:44;16.70;99.90
15184;DHT22;7693;49.266;7.104;2023-09-08T03:43:10;16.70;99.90
15184;DHT22;7693;49.266;7.104;2023-09-08T03:45:35;16.70;99.90
15184;DHT22;7693;49.266;7.104;2023-09-08T03:48:01;16.70;99.90
15184;DHT22;7693;49.266;7.104;2023-09-08T03:50:26;16.70;99.90
15184;DHT22;7693;49.266;7.104;2023-09-08T03:52:52;16.70;99.90
15184;DHT22;7693;49.266;7.104;2023-09-08T03:55:19;16.70;99.90
15184;DHT22;7693;49.266;7.104;2023-09-08T03:57:45;16.60;99.90
15184;DHT22;7693;49.266;7.104;2023-09-08T04:00:10;16.60;99.90
15184;DHT22;7693;49.266;7.104;2023-09-08T04:02:36;16.60;99.90
15184;DHT22;7693;49.266;7.104;2023-09-08T04:05:02;16.60;99.90
15184;DHT22;7693;49.266;7.104;2023-09-08T04:07:28;16.60;99.90
15184;DHT22;7693;49.266;7.104;2023-09-08T04:09:54;16.60;99.90
15184;DHT22;7693;49.266;7.104;2023-09-08T04:12:19;16.60;99.90
15184;DHT22;7693;49.266;7.104;2023-09-08T04:14:45;16.50;99.90
15184;DHT22;7693;49.266;7.104;2023-09-08T04:17:11;16.50;99.90
15184;DHT22;7693;49.266;7.104;2023-09-08T04:19:36;16.60;99.90
15184;DHT22;7693;49.266;7.104;2023-09-08T04:22:02;16.50;99.90
15184;DHT22;7693;49.266;7.104;2023-09-08T04:24:28;16.50;99.90
15184;DHT22;7693;49.266;7.104;2023-09-08T04:26:53;16.50;99.90
15184;DHT22;7693;49.266;7.104;2023-09-08T04:29:19;16.40;99.90
15184;DHT22;7693;49.266;7.104;2023-09-08T04:31:45;16.40;99.90
15184;DHT22;7693;49.266;7.104;2023-09-08T04:34:10;16.40;99.90
15184;DHT22;7693;49.266;7.104;2023-09-08T04:36:36;16.40;99.90
15184;DHT22;7693;49.266;7.104;2023-09-08T04:39:02;16.30;99.90
15184;DHT22;7693;49.266;7.104;2023-09-08T04:41:28;16.40;99.90
15184;DHT22;7693;49.266;7.104;2023-09-08T04:43:53;16.40;99.90
15184;DHT22;7693;49.266;7.104;2023-09-08T04:46:20;16.40;99.90
15184;DHT22;7693;49.266;7.104;2023-09-08T04:48:46;16.40;99.90
15184;DHT22;7693;49.266;7.104;2023-09-08T04:51:11;16.40;99.90
15184;DHT22;7693;49.266;7.104;2023-09-08T04:53:37;16.40;99.90
15184;DHT22;7693;49.266;7.104;2023-09-08T04:56:03;16.40;99.90
15184;DHT22;7693;49.266;7.104;2023-09-08T04:58:28;16.30;99.90
15184;DHT22;7693;49.266;7.104;2023-09-08T05:00:54;16.30;99.90
15184;DHT22;7693;49.266;7.104;2023-09-08T05:03:20;16.30;99.90
15184;DHT22;7693;49.266;7.104;2023-09-08T05:05:46;16.30;99.90
15184;DHT22;7693;49.266;7.104;2023-09-08T05:08:11;16.30;99.90
15184;DHT22;7693;49.266;7.104;2023-09-08T05:10:37;16.30;99.90
15184;DHT22;7693;49.266;7.104;2023-09-08T05:13:03;16.30;99.90
15184;DHT22;7693;49.266;7.104;2023-09-08T05:15:28;16.30;99.90
15184;DHT22;7693;49.266;7.104;2023-09-08T05:17:56;16.30;99.90
15184;DHT22;7693;49.266;7.104;2023-09-08T05:20:21;16.30;99.90
15184;DHT22;7693;49.266;7.104;2023-09-08T05:22:47;16.30;99.90
15184;DHT22;7693;49.266;7.104;2023-09-08T05:25:12;16.30;99.90
15184;DHT22;7693;49.266;7.104;2023-09-08T05:27:38;16.30;99.90
15184;DHT22;7693;49.266;7.104;2023-09-08T05:30:04;16.30;99.90
15184;DHT22;7693;49.266;7.104;2023-09-08T05:32:30;16.40;99.90
15184;DHT22;7693;49.266;7.104;2023-09-08T05:34:55;16.40;99.90
15184;DHT22;7693;49.266;7.104;2023-09-08T05:37:21;16.40;99.90
15184;DHT22;7693;49.266;7.104;2023-09-08T05:39:46;16.40;99.90
15184;DHT22;7693;49.266;7.104;2023-09-08T05:42:12;16.40;99.90
15184;DHT22;7693;49.266;7.104;2023-09-08T05:44:37;16.50;99.90
15184;DHT22;7693;49.266;7.104;2023-09-08T05:47:04;16.50;99.90
15184;DHT22;7693;49.266;7.104;2023-09-08T05:49:29;16.60;99.90
15184;DHT22;7693;49.266;7.104;2023-09-08T05:51:55;16.60;99.90
15184;DHT22;7693;49.266;7.104;2023-09-08T05:54:20;16.60;99.90
15184;DHT22;7693;49.266;7.104;2023-09-08T05:56:46;16.70;99.90
15184;DHT22;7693;49.266;7.104;2023-09-08T05:59:12;16.70;99.90
15184;DHT22;7693;49.266;7.104;2023-09-08T06:01:37;16.70;99.90
15184;DHT22;7693;49.266;7.104;2023-09-08T06:04:03;16.80;99.90
15184;DHT22;7693;49.266;7.104;2023-09-08T06:06:29;16.90;99.90
15184;DHT22;7693;49.266;7.104;2023-09-08T06:08:54;17.00;99.90
15184;DHT22;7693;49.266;7.104;2023-09-08T06:11:20;17.10;99.90
15184;DHT22;7693;49.266;7.104;2023-09-08T06:13:45;17.20;99.90
15184;DHT22;7693;49.266;7.104;2023-09-08T06:16:11;17.20;99.90
15184;DHT22;7693;49.266;7.104;2023-09-08T06:18:37;17.40;99.90
15184;DHT22;7693;49.266;7.104;2023-09-08T06:21:08;17.40;99.90
15184;DHT22;7693;49.266;7.104;2023-09-08T06:23:35;17.60;99.90
15184;DHT22;7693;49.266;7.104;2023-09-08T06:26:01;17.60;99.90
15184;DHT22;7693;49.266;7.104;2023-09-08T06:28:27;17.70;99.90
15184;DHT22;7693;49.266;7.104;2023-09-08T06:30:53;17.80;99.90
15184;DHT22;7693;49.266;7.104;2023-09-08T06:33:19;17.90;99.90
15184;DHT22;7693;49.266;7.104;2023-09-08T06:35:47;18.00;99.90
15184;DHT22;7693;49.266;7.104;2023-09-08T06:38:13;18.10;99.90
15184;DHT22;7693;49.266;7.104;2023-09-08T06:40:39;18.20;99.90
15184;DHT22;7693;49.266;7.104;2023-09-08T06:43:04;18.30;99.90
15184;DHT22;7693;49.266;7.104;2023-09-08T06:45:30;18.30;99.90
15184;DHT22;7693;49.266;7.104;2023-09-08T06:47:56;18.40;99.90
15184;DHT22;7693;49.266;7.104;2023-09-08T06:50:22;18.50;99.90
15184;DHT22;7693;49.266;7.104;2023-09-08T06:52:49;18.60;99.90
15184;DHT22;7693;49.266;7.104;2023-09-08T06:55:15;18.70;99.90
15184;DHT22;7693;49.266;7.104;2023-09-08T06:57:42;18.80;99.90
15184;DHT22;7693;49.266;7.104;2023-09-08T07:00:08;18.80;99.90
15184;DHT22;7693;49.266;7.104;2023-09-08T07:02:34;18.90;99.90
15184;DHT22;7693;49.266;7.104;2023-09-08T07:05:00;19.00;99.90
15184;DHT22;7693;49.266;7.104;2023-09-08T07:07:31;19.00;99.90
15184;DHT22;7693;49.266;7.104;2023-09-08T07:09:57;19.10;99.90
15184;DHT22;7693;49.266;7.104;2023-09-08T07:12:22;19.20;99.90
15184;DHT22;7693;49.266;7.104;2023-09-08T07:14:48;19.20;99.90
15184;DHT22;7693;49.266;7.104;2023-09-08T07:17:13;19.30;99.90
15184;DHT22;7693;49.266;7.104;2023-09-08T07:19:39;19.40;99.90
15184;DHT22;7693;49.266;7.104;2023-09-08T07:22:05;19.50;99.90
15184;DHT22;7693;49.266;7.104;2023-09-08T07:24:31;19.60;99.90
15184;DHT22;7693;49.266;7.104;2023-09-08T07:26:57;19.70;99.90
15184;DHT22;7693;49.266;7.104;2023-09-08T07:29:22;19.80;99.90
15184;DHT22;7693;49.266;7.104;2023-09-08T07:31:48;19.80;99.90
15184;DHT22;7693;49.266;7.104;2023-09-08T07:34:13;19.90;99.90
15184;DHT22;7693;49.266;7.104;2023-09-08T07:36:39;20.00;99.90
15184;DHT22;7693;49.266;7.104;2023-09-08T07:39:05;20.10;99.90
15184;DHT22;7693;49.266;7.104;2023-09-08T07:41:31;20.20;99.90
15184;DHT22;7693;49.266;7.104;2023-09-08T07:43:56;20.30;99.90
15184;DHT22;7693;49.266;7.104;2023-09-08T07:46:22;20.30;99.90
15184;DHT22;7693;49.266;7.104;2023-09-08T07:48:47;20.40;99.90
15184;DHT22;7693;49.266;7.104;2023-09-08T07:51:13;20.40;99.90
15184;DHT22;7693;49.266;7.104;2023-09-08T07:53:39;20.50;99.90
15184;DHT22;7693;49.266;7.104;2023-09-08T07:56:04;20.50;99.90
15184;DHT22;7693;49.266;7.104;2023-09-08T07:58:30;20.60;99.90
15184;DHT22;7693;49.266;7.104;2023-09-08T08:00:55;20.70;99.90
15184;DHT22;7693;49.266;7.104;2023-09-08T08:03:21;20.80;99.90
15184;DHT22;7693;49.266;7.104;2023-09-08T08:05:47;20.90;99.90
15184;DHT22;7693;49.266;7.104;2023-09-08T08:08:12;20.90;99.90
15184;DHT22;7693;49.266;7.104;2023-09-08T08:10:40;21.00;99.90
15184;DHT22;7693;49.266;7.104;2023-09-08T08:13:05;21.00;99.90
15184;DHT22;7693;49.266;7.104;2023-09-08T08:15:39;21.10;99.90
15184;DHT22;7693;49.266;7.104;2023-09-08T08:18:05;21.10;99.90
15184;DHT22;7693;49.266;7.104;2023-09-08T08:20:31;21.20;99.90
15184;DHT22;7693;49.266;7.104;2023-09-08T08:23:04;21.30;99.90
15184;DHT22;7693;49.266;7.104;2023-09-08T08:25:29;21.40;99.90
15184;DHT22;7693;49.266;7.104;2023-09-08T08:27:55;21.50;99.90
15184;DHT22;7693;49.266;7.104;2023-09-08T08:30:25;21.60;99.90
15184;DHT22;7693;49.266;7.104;2023-09-08T08:32:51;21.70;99.90
15184;DHT22;7693;49.266;7.104;2023-09-08T08:35:21;21.80;99.90
15184;DHT22;7693;49.266;7.104;2023-09-08T08:37:47;21.80;99.90
15184;DHT22;7693;49.266;7.104;2023-09-08T08:40:12;21.90;99.90
15184;DHT22;7693;49.266;7.104;2023-09-08T08:42:38;22.00;99.90
15184;DHT22;7693;49.266;7.104;2023-09-08T08:45:05;22.10;99.90
15184;DHT22;7693;49.266;7.104;2023-09-08T08:47:31;22.10;99.90
15184;DHT22;7693;49.266;7.104;2023-09-08T08:49:58;22.10;99.90
15184;DHT22;7693;49.266;7.104;2023-09-08T08:52:25;22.20;99.90
15184;DHT22;7693;49.266;7.104;2023-09-08T08:54:51;22.30;99.90
15184;DHT22;7693;49.266;7.104;2023-09-08T08:57:16;22.40;99.90
15184;DHT22;7693;49.266;7.104;2023-09-08T08:59:43;22.50;99.90
15184;DHT22;7693;49.266;7.104;2023-09-08T09:02:11;22.60;99.90
15184;DHT22;7693;49.266;7.104;2023-09-08T09:04:37;22.70;99.90
15184;DHT22;7693;49.266;7.104;2023-09-08T09:07:05;22.80;99.90
15184;DHT22;7693;49.266;7.104;2023-09-08T09:09:31;22.90;99.90
15184;DHT22;7693;49.266;7.104;2023-09-08T09:11:57;23.00;99.90
15184;DHT22;7693;49.266;7.104;2023-09-08T09:14:23;23.20;99.90
15184;DHT22;7693;49.266;7.104;2023-09-08T09:16:49;23.20;99.90
15184;DHT22;7693;49.266;7.104;2023-09-08T09:19:21;23.40;99.90
15184;DHT22;7693;49.266;7.104;2023-09-08T09:21:53;23.50;99.90
15184;DHT22;7693;49.266;7.104;2023-09-08T09:24:49;23.50;99.90
15184;DHT22;7693;49.266;7.104;2023-09-08T09:27:14;23.60;99.90
15184;DHT22;7693;49.266;7.104;2023-09-08T09:29:48;23.70;99.90
15184;DHT22;7693;49.266;7.104;2023-09-08T09:32:15;23.80;99.90
15184;DHT22;7693;49.266;7.104;2023-09-08T09:34:49;23.90;99.90
15184;DHT22;7693;49.266;7.104;2023-09-08T09:37:15;24.00;99.90
15184;DHT22;7693;49.266;7.104;2023-09-08T09:39:41;24.00;99.90
15184;DHT22;7693;49.266;7.104;2023-09-08T09:42:07;24.10;99.90
15184;DHT22;7693;49.266;7.104;2023-09-08T09:44:32;24.10;99.90
15184;DHT22;7693;49.266;7.104;2023-09-08T09:47:00;24.10;99.90
15184;DHT22;7693;49.266;7.104;2023-09-08T09:49:26;24.20;99.90
15184;DHT22;7693;49.266;7.104;2023-09-08T09:51:58;24.30;99.90
15184;DHT22;7693;49.266;7.104;2023-09-08T09:54:23;24.40;99.90
15184;DHT22;7693;49.266;7.104;2023-09-08T09:56:49;24.50;99.90
15184;DHT22;7693;49.266;7.104;2023-09-08T09:59:17;24.50;99.90
15184;DHT22;7693;49.266;7.104;2023-09-08T10:01:43;24.60;99.90
15184;DHT22;7693;49.266;7.104;2023-09-08T12:51:28;28.40;99.90
15184;DHT22;7693;49.266;7.104;2023-09-08T12:53:54;28.50;99.90
15184;DHT22;7693;49.266;7.104;2023-09-08T12:56:19;28.50;99.90
15184;DHT22;7693;49.266;7.104;2023-09-08T12:58:45;28.50;99.90
15184;DHT22;7693;49.266;7.104;2023-09-08T13:01:10;28.50;99.90
15184;DHT22;7693;49.266;7.104;2023-09-08T13:03:36;28.50;99.90
15184;DHT22;7693;49.266;7.104;2023-09-08T13:06:01;28.50;99.90
15184;DHT22;7693;49.266;7.104;2023-09-08T13:08:27;28.60;99.90
15184;DHT22;7693;49.266;7.104;2023-09-08T13:10:52;28.70;99.90
15184;DHT22;7693;49.266;7.104;2023-09-08T13:13:18;28.70;99.90
15184;DHT22;7693;49.266;7.104;2023-09-08T13:15:44;28.80;99.90
15184;DHT22;7693;49.266;7.104;2023-09-08T13:18:09;28.90;99.90
15184;DHT22;7693;49.266;7.104;2023-09-08T13:20:35;28.90;99.90
15184;DHT22;7693;49.266;7.104;2023-09-08T13:23:00;28.90;99.90
15184;DHT22;7693;49.266;7.104;2023-09-08T13:25:26;29.00;99.90
15184;DHT22;7693;49.266;7.104;2023-09-08T13:27:51;29.10;99.90
15184;DHT22;7693;49.266;7.104;2023-09-08T13:30:17;29.00;99.90
15184;DHT22;7693;49.266;7.104;2023-09-08T13:32:44;29.00;99.90
15184;DHT22;7693;49.266;7.104;2023-09-08T13:35:10;29.00;99.90
15184;DHT22;7693;49.266;7.104;2023-09-08T13:37:36;28.90;99.90
15184;DHT22;7693;49.266;7.104;2023-09-08T13:40:03;29.00;99.90
15184;DHT22;7693;49.266;7.104;2023-09-08T13:42:29;29.00;99.90
15184;DHT22;7693;49.266;7.104;2023-09-08T13:44:55;29.10;99.90
15184;DHT22;7693;49.266;7.104;2023-09-08T13:47:20;29.00;99.90
15184;DHT22;7693;49.266;7.104;2023-09-08T13:49:46;29.00;99.90
15184;DHT22;7693;49.266;7.104;2023-09-08T13:52:12;29.00;99.90
15184;DHT22;7693;49.266;7.104;2023-09-08T13:54:37;29.10;99.90
15184;DHT22;7693;49.266;7.104;2023-09-08T13:57:04;29.20;99.90
15184;DHT22;7693;49.266;7.104;2023-09-08T13:59:30;29.20;99.90
15184;DHT22;7693;49.266;7.104;2023-09-08T14:01:56;29.20;99.90
15184;DHT22;7693;49.266;7.104;2023-09-08T14:04:23;29.20;99.90
15184;DHT22;7693;49.266;7.104;2023-09-08T14:06:49;29.30;99.80
15184;DHT22;7693;49.266;7.104;2023-09-08T14:09:15;29.30;99.50
15184;DHT22;7693;49.266;7.104;2023-09-08T14:11:41;29.30;99.50
15184;DHT22;7693;49.266;7.104;2023-09-08T14:14:07;29.30;99.20
15184;DHT22;7693;49.266;7.104;2023-09-08T14:16:32;29.30;98.90
15184;DHT22;7693;49.266;7.104;2023-09-08T14:18:58;29.30;99.10
15184;DHT22;7693;49.266;7.104;2023-09-08T14:21:24;29.30;99.10
15184;DHT22;7693;49.266;7.104;2023-09-08T14:23:49;29.40;99.30
15184;DHT22;7693;49.266;7.104;2023-09-08T14:26:15;29.40;98.70
15184;DHT22;7693;49.266;7.104;2023-09-08T14:28:40;29.40;98.50
15184;DHT22;7693;49.266;7.104;2023-09-08T14:31:06;29.50;98.40
15184;DHT22;7693;49.266;7.104;2023-09-08T14:33:31;29.50;98.00
15184;DHT22;7693;49.266;7.104;2023-09-08T14:35:57;29.50;97.80
15184;DHT22;7693;49.266;7.104;2023-09-08T14:38:23;29.50;97.80
15184;DHT22;7693;49.266;7.104;2023-09-08T14:40:56;29.70;98.10
15184;DHT22;7693;49.266;7.104;2023-09-08T14:43:23;29.80;97.80
15184;DHT22;7693;49.266;7.104;2023-09-08T14:45:49;29.90;97.60
15184;DHT22;7693;49.266;7.104;2023-09-08T14:48:14;30.00;97.30
15184;DHT22;7693;49.266;7.104;2023-09-08T14:50:40;30.10;97.40
15184;DHT22;7693;49.266;7.104;2023-09-08T14:53:05;30.20;97.40
15184;DHT22;7693;49.266;7.104;2023-09-08T14:55:32;30.30;97.10
15184;DHT22;7693;49.266;7.104;2023-09-08T14:57:58;30.40;96.90
15184;DHT22;7693;49.266;7.104;2023-09-08T15:00:23;30.50;97.00
15184;DHT22;7693;49.266;7.104;2023-09-08T15:02:49;30.50;97.00
15184;DHT22;7693;49.266;7.104;2023-09-08T15:05:15;30.50;96.60
15184;DHT22;7693;49.266;7.104;2023-09-08T15:07:41;30.60;97.00
15184;DHT22;7693;49.266;7.104;2023-09-08T15:10:07;30.70;97.20
15184;DHT22;7693;49.266;7.104;2023-09-08T15:12:32;30.70;96.70
15184;DHT22;7693;49.266;7.104;2023-09-08T15:14:58;30.50;96.20
15184;DHT22;7693;49.266;7.104;2023-09-08T15:17:24;30.40;95.90
15184;DHT22;7693;49.266;7.104;2023-09-08T15:19:49;30.20;95.80
15184;DHT22;7693;49.266;7.104;2023-09-08T15:22:15;30.00;95.30
15184;DHT22;7693;49.266;7.104;2023-09-08T15:24:40;29.70;95.00
15184;DHT22;7693;49.266;7.104;2023-09-08T15:27:06;29.50;95.00
15184;DHT22;7693;49.266;7.104;2023-09-08T15:29:31;29.50;95.10
15184;DHT22;7693;49.266;7.104;2023-09-08T15:31:57;29.40;95.10
15184;DHT22;7693;49.266;7.104;2023-09-08T15:34:22;29.30;94.90
15184;DHT22;7693;49.266;7.104;2023-09-08T15:36:48;29.30;95.00
15184;DHT22;7693;49.266;7.104;2023-09-08T15:39:15;29.20;95.30
15184;DHT22;7693;49.266;7.104;2023-09-08T15:41:41;29.20;95.40
15184;DHT22;7693;49.266;7.104;2023-09-08T15:44:07;29.20;95.30
15184;DHT22;7693;49.266;7.104;2023-09-08T15:46:32;29.20;95.40
15184;DHT22;7693;49.266;7.104;2023-09-08T15:48:58;29.10;95.30
15184;DHT22;7693;49.266;7.104;2023-09-08T15:51:24;29.00;94.90
15184;DHT22;7693;49.266;7.104;2023-09-08T15:53:49;28.90;94.70
15184;DHT22;7693;49.266;7.104;2023-09-08T15:56:15;28.90;94.80
15184;DHT22;7693;49.266;7.104;2023-09-08T15:58:41;28.80;94.90
15184;DHT22;7693;49.266;7.104;2023-09-08T16:01:07;28.80;95.50
15184;DHT22;7693;49.266;7.104;2023-09-08T16:03:33;28.90;95.70
15184;DHT22;7693;49.266;7.104;2023-09-08T16:05:59;28.90;95.70
15184;DHT22;7693;49.266;7.104;2023-09-08T16:08:25;28.90;95.70
15184;DHT22;7693;49.266;7.104;2023-09-08T16:10:50;29.00;96.30
15184;DHT22;7693;49.266;7.104;2023-09-08T16:13:17;29.00;96.00
15184;DHT22;7693;49.266;7.104;2023-09-08T16:15:43;29.00;95.60
15184;DHT22;7693;49.266;7.104;2023-09-08T16:18:08;29.00;95.80
15184;DHT22;7693;49.266;7.104;2023-09-08T16:20:36;29.10;96.90
15184;DHT22;7693;49.266;7.104;2023-09-08T16:23:03;29.30;97.50
15184;DHT22;7693;49.266;7.104;2023-09-08T16:25:29;29.40;96.40
15184;DHT22;7693;49.266;7.104;2023-09-08T16:27:55;29.20;95.70
15184;DHT22;7693;49.266;7.104;2023-09-08T16:30:21;29.00;95.50
15184;DHT22;7693;49.266;7.104;2023-09-08T16:32:46;28.70;95.40
15184;DHT22;7693;49.266;7.104;2023-09-08T16:35:12;28.50;95.40
15184;DHT22;7693;49.266;7.104;2023-09-08T16:37:38;28.30;95.50
15184;DHT22;7693;49.266;7.104;2023-09-08T16:40:04;28.20;95.60
15184;DHT22;7693;49.266;7.104;2023-09-08T16:42:29;28.10;95.70
15184;DHT22;7693;49.266;7.104;2023-09-08T16:44:55;28.00;95.90
15184;DHT22;7693;49.266;7.104;2023-09-08T16:47:20;27.90;95.90
15184;DHT22;7693;49.266;7.104;2023-09-08T16:49:48;27.80;96.30
15184;DHT22;7693;49.266;7.104;2023-09-08T16:52:13;28.00;97.40
15184;DHT22;7693;49.266;7.104;2023-09-08T16:54:39;28.00;97.00
15184;DHT22;7693;49.266;7.104;2023-09-08T16:57:05;28.00;96.80
15184;DHT22;7693;49.266;7.104;2023-09-08T16:59:30;27.90;96.50
15184;DHT22;7693;49.266;7.104;2023-09-08T17:01:56;27.70;96.50
15184;DHT22;7693;49.266;7.104;2023-09-08T17:04:21;27.60;96.60
15184;DHT22;7693;49.266;7.104;2023-09-08T17:06:48;27.50;96.70
15184;DHT22;7693;49.266;7.104;2023-09-08T17:09:14;27.30;96.70
15184;DHT22;7693;49.266;7.104;2023-09-08T17:11:40;27.20;96.90
15184;DHT22;7693;49.266;7.104;2023-09-08T17:14:06;27.10;97.00
15184;DHT22;7693;49.266;7.104;2023-09-08T17:16:32;27.00;97.10
15184;DHT22;7693;49.266;7.104;2023-09-08T17:18:57;26.90;97.30
15184;DHT22;7693;49.266;7.104;2023-09-08T17:21:23;26.80;97.30
15184;DHT22;7693;49.266;7.104;2023-09-08T17:23:49;26.70;97.40
15184;DHT22;7693;49.266;7.104;2023-09-08T17:26:14;26.60;97.60
15184;DHT22;7693;49.266;7.104;2023-09-08T17:28:40;26.50;97.70
15184;DHT22;7693;49.266;7.104;2023-09-08T17:31:06;26.40;97.80
15184;DHT22;7693;49.266;7.104;2023-09-08T17:33:32;26.30;97.80
15184;DHT22;7693;49.266;7.104;2023-09-08T17:35:58;26.30;97.90
15184;DHT22;7693;49.266;7.104;2023-09-08T17:38:24;26.20;98.10
15184;DHT22;7693;49.266;7.104;2023-09-08T17:40:49;26.10;98.20
15184;DHT22;7693;49.266;7.104;2023-09-08T17:43:15;26.00;98.20
15184;DHT22;7693;49.266;7.104;2023-09-08T17:45:40;25.90;98.20
15184;DHT22;7693;49.266;7.104;2023-09-08T17:48:06;25.80;98.30
15184;DHT22;7693;49.266;7.104;2023-09-08T17:50:32;25.70;98.40
15184;DHT22;7693;49.266;7.104;2023-09-08T17:52:58;25.70;98.50
15184;DHT22;7693;49.266;7.104;2023-09-08T17:55:23;25.60;98.60
15184;DHT22;7693;49.266;7.104;2023-09-08T17:57:52;25.50;98.60
15184;DHT22;7693;49.266;7.104;2023-09-08T18:00:18;25.40;98.80
15184;DHT22;7693;49.266;7.104;2023-09-08T18:02:44;25.30;98.90
15184;DHT22;7693;49.266;7.104;2023-09-08T18:05:10;25.20;99.00
15184;DHT22;7693;49.266;7.104;2023-09-08T18:07:35;25.10;99.10
15184;DHT22;7693;49.266;7.104;2023-09-08T18:10:05;25.00;99.20
15184;DHT22;7693;49.266;7.104;2023-09-08T18:12:31;25.00;99.30
15184;DHT22;7693;49.266;7.104;2023-09-08T18:14:57;24.90;99.40
15184;DHT22;7693;49.266;7.104;2023-09-08T18:17:23;24.80;99.50
15184;DHT22;7693;49.266;7.104;2023-09-08T18:19:49;24.70;99.70
15184;DHT22;7693;49.266;7.104;2023-09-08T18:22:14;24.60;99.80
15184;DHT22;7693;49.266;7.104;2023-09-08T18:24:40;24.50;99.90
15184;DHT22;7693;49.266;7.104;2023-09-08T18:27:05;24.40;99.90
15184;DHT22;7693;49.266;7.104;2023-09-08T18:29:31;24.30;99.90
15184;DHT22;7693;49.266;7.104;2023-09-08T18:31:58;24.30;99.90
15184;DHT22;7693;49.266;7.104;2023-09-08T18:34:24;24.20;99.90
15184;DHT22;7693;49.266;7.104;2023-09-08T18:36:50;24.10;99.90
15184;DHT22;7693;49.266;7.104;2023-09-08T18:39:15;24.10;99.90
15184;DHT22;7693;49.266;7.104;2023-09-08T18:41:41;24.00;99.90
15184;DHT22;7693;49.266;7.104;2023-09-08T18:44:06;24.00;99.90
15184;DHT22;7693;49.266;7.104;2023-09-08T18:46:32;23.90;99.90
15184;DHT22;7693;49.266;7.104;2023-09-08T18:48:57;23.90;99.90
15184;DHT22;7693;49.266;7.104;2023-09-08T18:51:23;23.80;99.90
15184;DHT22;7693;49.266;7.104;2023-09-08T18:53:49;23.70;99.90
15184;DHT22;7693;49.266;7.104;2023-09-08T18:56:14;23.70;99.90
15184;DHT22;7693;49.266;7.104;2023-09-08T18:58:43;23.60;99.90
15184;DHT22;7693;49.266;7.104;2023-09-08T19:01:09;23.50;99.90
15184;DHT22;7693;49.266;7.104;2023-09-08T19:03:35;23.40;99.90
15184;DHT22;7693;49.266;7.104;2023-09-08T19:06:03;23.40;99.90
15184;DHT22;7693;49.266;7.104;2023-09-08T19:08:29;23.30;99.90
15184;DHT22;7693;49.266;7.104;2023-09-08T19:10:54;23.30;99.90
15184;DHT22;7693;49.266;7.104;2023-09-08T19:13:20;23.20;99.90
15184;DHT22;7693;49.266;7.104;2023-09-08T19:15:47;23.20;99.90
15184;DHT22;7693;49.266;7.104;2023-09-08T19:18:13;23.20;99.90
15184;DHT22;7693;49.266;7.104;2023-09-08T19:20:39;23.10;99.90
15184;DHT22;7693;49.266;7.104;2023-09-08T19:23:04;23.00;99.90
15184;DHT22;7693;49.266;7.104;2023-09-08T19:25:30;23.00;99.90
15184;DHT22;7693;49.266;7.104;2023-09-08T19:27:55;22.90;99.90
15184;DHT22;7693;49.266;7.104;2023-09-08T19:30:22;22.90;99.90
15184;DHT22;7693;49.266;7.104;2023-09-08T19:32:47;22.90;99.90
15184;DHT22;7693;49.266;7.104;2023-09-08T19:35:13;22.80;99.90
15184;DHT22;7693;49.266;7.104;2023-09-08T19:37:39;22.80;99.90
15184;DHT22;7693;49.266;7.104;2023-09-08T19:40:06;22.70;99.90
15184;DHT22;7693;49.266;7.104;2023-09-08T19:42:32;22.60;99.90
15184;DHT22;7693;49.266;7.104;2023-09-08T19:44:57;22.60;99.90
15184;DHT22;7693;49.266;7.104;2023-09-08T19:47:23;22.60;99.90
15184;DHT22;7693;49.266;7.104;2023-09-08T19:49:48;22.60;99.90
15184;DHT22;7693;49.266;7.104;2023-09-08T19:52:14;22.50;99.90
15184;DHT22;7693;49.266;7.104;2023-09-08T19:54:42;22.50;99.90
15184;DHT22;7693;49.266;7.104;2023-09-08T19:57:08;22.50;99.90
15184;DHT22;7693;49.266;7.104;2023-09-08T19:59:34;22.40;99.90
15184;DHT22;7693;49.266;7.104;2023-09-08T20:02:00;22.40;99.90
15184;DHT22;7693;49.266;7.104;2023-09-08T20:04:25;22.30;99.90
15184;DHT22;7693;49.266;7.104;2023-09-08T20:06:51;22.30;99.90
15184;DHT22;7693;49.266;7.104;2023-09-08T20:09:19;22.30;99.90
15184;DHT22;7693;49.266;7.104;2023-09-08T20:11:45;22.20;99.90
15184;DHT22;7693;49.266;7.104;2023-09-08T20:14:11;22.10;99.90
15184;DHT22;7693;49.266;7.104;2023-09-08T20:16:37;22.10;99.90
15184;DHT22;7693;49.266;7.104;2023-09-08T20:19:03;22.10;99.90
15184;DHT22;7693;49.266;7.104;2023-09-08T20:21:29;22.10;99.90
15184;DHT22;7693;49.266;7.104;2023-09-08T20:23:55;22.10;99.90
15184;DHT22;7693;49.266;7.104;2023-09-08T20:26:21;22.10;99.90
15184;DHT22;7693;49.266;7.104;2023-09-08T20:28:47;22.10;99.90
15184;DHT22;7693;49.266;7.104;2023-09-08T20:31:17;22.00;99.90
15184;DHT22;7693;49.266;7.104;2023-09-08T20:33:46;22.00;99.90
15184;DHT22;7693;49.266;7.104;2023-09-08T20:36:13;22.00;99.90
15184;DHT22;7693;49.266;7.104;2023-09-08T20:38:38;22.00;99.90
15184;DHT22;7693;49.266;7.104;2023-09-08T20:41:04;22.00;99.90
15184;DHT22;7693;49.266;7.104;2023-09-08T20:43:32;21.90;99.90
15184;DHT22;7693;49.266;7.104;2023-09-08T20:45:58;21.90;99.90
15184;DHT22;7693;49.266;7.104;2023-09-08T20:48:25;21.80;99.90
15184;DHT22;7693;49.266;7.104;2023-09-08T20:51:05;21.80;99.90
15184;DHT22;7693;49.266;7.104;2023-09-08T20:53:32;21.70;99.90
15184;DHT22;7693;49.266;7.104;2023-09-08T20:55:58;21.60;99.90